createdAt,value
2023-05-15T00:00:58.177Z,100503.19
2023-05-15T00:03:27.199Z,100502.22
2023-05-15T00:05:55.661Z,100501.28
2023-05-15T00:08:23.916Z,100504.25
2023-05-15T00:11:00.775Z,100502.50
2023-05-15T00:13:30.395Z,100499.09
2023-05-15T00:15:58.844Z,100502.59
2023-05-15T00:18:27.249Z,100501.94
2023-05-15T00:20:55.754Z,100493.13
2023-05-15T00:23:23.986Z,100494.81
2023-05-15T00:25:52.413Z,100489.63
2023-05-15T00:28:20.688Z,100490.28
2023-05-15T00:30:49.988Z,100493.13
2023-05-15T00:33:18.376Z,100495.28
2023-05-15T00:35:46.627Z,100507.41
2023-05-15T00:38:14.880Z,100495.97
2023-05-15T00:40:44.127Z,100504.81
2023-05-15T00:43:14.303Z,100500.63
2023-05-15T00:45:42.833Z,100509.78
2023-05-15T00:48:11.244Z,100505.72
2023-05-15T00:50:41.571Z,100497.38
2023-05-15T00:53:10.699Z,100495.25
2023-05-15T00:55:39.332Z,100497.22
2023-05-15T00:58:08.262Z,100494.28
2023-05-15T01:00:37.447Z,100497.25
2023-05-15T01:03:06.755Z,100489.44
2023-05-15T01:05:35.284Z,100491.44
2023-05-15T01:08:47.097Z,100482.63
2023-05-15T01:11:17.685Z,100487.88
2023-05-15T01:13:47.498Z,100484.09
2023-05-15T01:16:15.794Z,100475.81
2023-05-15T01:18:44.162Z,100483.19
2023-05-15T01:21:36.371Z,100484.66
2023-05-15T01:24:41.764Z,100476.84
2023-05-15T01:27:24.300Z,100484.22
2023-05-15T01:30:05.094Z,100472.47
2023-05-15T01:33:00.221Z,100470.69
2023-05-15T01:35:59.294Z,100472.81
2023-05-15T01:38:35.533Z,100470.69
2023-05-15T01:41:28.067Z,100465.34
2023-05-15T01:44:18.071Z,100464.69
2023-05-15T01:46:52.942Z,100466.53
2023-05-15T01:49:26.851Z,100457.22
2023-05-15T01:52:19.143Z,100474.38
2023-05-15T01:54:48.483Z,100457.56
2023-05-15T01:57:17.162Z,100452.50
2023-05-15T01:59:46.892Z,100453.16
2023-05-15T02:02:16.309Z,100452.22
2023-05-15T02:04:45.917Z,100451.22
2023-05-15T02:07:14.982Z,100450.25
2023-05-15T02:09:44.173Z,100451.22
2023-05-15T02:12:12.795Z,100441.28
2023-05-15T02:14:41.727Z,100450.13
2023-05-15T02:17:10.013Z,100442.44
2023-05-15T02:19:38.271Z,100451.91
2023-05-15T02:22:06.550Z,100442.25
2023-05-15T02:24:35.042Z,100451.09
2023-05-15T02:27:28.880Z,100436.09
2023-05-15T02:34:26.388Z,100435.72
2023-05-15T02:36:58.467Z,100439.50
2023-05-15T02:39:27.263Z,100440.78
2023-05-15T02:41:56.303Z,100441.28
2023-05-15T02:44:24.978Z,100434.13
2023-05-15T02:46:54.773Z,100437.53
2023-05-15T02:49:23.141Z,100433.28
2023-05-15T02:51:51.764Z,100433.94
2023-05-15T02:54:20.184Z,100427.72
2023-05-15T02:56:48.439Z,100436.69
2023-05-15T02:59:19.759Z,100428.38
2023-05-15T03:01:48.432Z,100439.00
2023-05-15T03:04:16.805Z,100440.16
2023-05-15T03:06:45.098Z,100421.72
2023-05-15T03:09:13.391Z,100427.09
2023-05-15T03:11:41.675Z,100434.41
2023-05-15T03:14:10.006Z,100426.75
2023-05-15T03:16:38.943Z,100429.66
2023-05-15T03:19:07.542Z,100421.50
2023-05-15T03:21:35.837Z,100420.53
2023-05-15T03:24:04.193Z,100417.44
2023-05-15T03:26:32.516Z,100420.22
2023-05-15T03:29:02.217Z,100415.78
2023-05-15T03:31:30.724Z,100419.22
2023-05-15T03:33:59.094Z,100414.81
2023-05-15T03:36:27.352Z,100415.94
2023-05-15T03:38:55.664Z,100422.44
2023-05-15T03:41:25.964Z,100417.91
2023-05-15T03:43:54.182Z,100417.38
2023-05-15T03:46:22.463Z,100419.97
2023-05-15T03:48:50.698Z,100412.00
2023-05-15T03:51:19.007Z,100418.19
2023-05-15T03:53:47.226Z,100417.38
2023-05-15T03:56:15.626Z,100415.75
2023-05-15T03:58:43.887Z,100418.19
2023-05-15T04:01:12.238Z,100418.19
2023-05-15T04:03:40.630Z,100405.81
2023-05-15T04:06:08.877Z,100408.44
2023-05-15T04:08:37.568Z,100409.25
2023-05-15T04:11:07.064Z,100419.22
2023-05-15T04:13:35.320Z,100416.44
2023-05-15T04:16:04.423Z,100418.72
2023-05-15T04:18:32.772Z,100413.50
2023-05-15T04:21:01.004Z,100418.59
2023-05-15T04:23:29.209Z,100421.03
2023-05-15T04:25:57.421Z,100418.09
2023-05-15T04:28:25.869Z,100412.91
2023-05-15T04:30:54.304Z,100411.09
2023-05-15T04:33:22.509Z,100417.97
2023-05-15T04:35:50.818Z,100418.59
2023-05-15T04:38:19.259Z,100412.41
2023-05-15T04:40:47.461Z,100410.59
2023-05-15T04:43:15.745Z,100407.16
2023-05-15T04:45:44.062Z,100414.22
2023-05-15T04:48:12.289Z,100422.38
2023-05-15T04:50:40.570Z,100423.81
2023-05-15T04:53:08.794Z,100424.16
2023-05-15T04:55:37.004Z,100419.72
2023-05-15T04:58:05.258Z,100428.34
2023-05-15T05:00:33.586Z,100421.16
2023-05-15T05:03:01.926Z,100426.19
2023-05-15T05:05:30.162Z,100425.69
2023-05-15T05:07:58.380Z,100427.63
2023-05-15T05:10:26.619Z,100425.13
2023-05-15T05:12:55.104Z,100426.47
2023-05-15T05:15:23.664Z,100427.56
2023-05-15T05:17:53.108Z,100426.09
2023-05-15T05:20:21.491Z,100429.47
2023-05-15T05:22:49.793Z,100418.38
2023-05-15T05:25:18.167Z,100423.53
2023-05-15T05:27:46.405Z,100424.00
2023-05-15T05:30:15.077Z,100414.03
2023-05-15T05:32:43.422Z,100418.06
2023-05-15T05:35:11.677Z,100414.97
2023-05-15T05:37:41.259Z,100419.56
2023-05-15T05:40:10.775Z,100420.81
2023-05-15T05:42:39.076Z,100427.88
2023-05-15T05:45:07.938Z,100425.75
2023-05-15T05:47:36.185Z,100428.25
2023-05-15T05:50:04.885Z,100419.88
2023-05-15T05:52:33.157Z,100431.38
2023-05-15T05:55:01.357Z,100423.91
2023-05-15T05:57:35.846Z,100430.19
2023-05-15T06:00:10.688Z,100431.09
2023-05-15T06:02:41.134Z,100437.03
2023-05-15T06:05:18.426Z,100438.09
2023-05-15T06:08:12.478Z,100432.19
2023-05-15T06:10:42.217Z,100428.50
2023-05-15T06:13:10.487Z,100430.00
2023-05-15T06:15:38.827Z,100428.38
2023-05-15T06:18:07.145Z,100426.44
2023-05-15T06:20:35.515Z,100424.91
2023-05-15T06:23:03.865Z,100427.66
2023-05-15T06:25:32.782Z,100425.97
2023-05-15T06:28:04.235Z,100424.09
2023-05-15T06:30:36.613Z,100425.94
2023-05-15T06:33:07.055Z,100425.34
2023-05-15T06:35:36.794Z,100425.28
2023-05-15T06:38:29.892Z,100416.47
2023-05-15T06:40:58.282Z,100419.31
2023-05-15T06:43:26.505Z,100414.75
2023-05-15T06:45:54.818Z,100410.59
2023-05-15T06:48:23.039Z,100418.25
2023-05-15T06:50:51.463Z,100419.84
2023-05-15T06:53:45.187Z,100409.03
2023-05-15T06:56:18.738Z,100410.50
2023-05-15T06:58:47.073Z,100429.25
2023-05-15T07:01:26.668Z,100436.31
2023-05-15T07:03:55.147Z,100428.28
2023-05-15T07:06:23.400Z,100424.72
2023-05-15T07:08:51.863Z,100426.28
2023-05-15T07:11:21.108Z,100420.59
2023-05-15T07:13:50.701Z,100421.13
2023-05-15T07:16:19.228Z,100417.41
2023-05-15T07:18:48.654Z,100416.22
2023-05-15T07:21:17.075Z,100424.97
2023-05-15T07:23:45.302Z,100421.81
2023-05-15T07:26:27.481Z,100424.28
2023-05-15T07:28:59.742Z,100420.03
2023-05-15T07:31:28.126Z,100420.84
2023-05-15T07:33:56.957Z,100416.94
2023-05-15T07:36:25.271Z,100424.41
2023-05-15T07:38:53.556Z,100415.72
2023-05-15T07:41:21.926Z,100423.22
2023-05-15T07:43:50.204Z,100418.81
2023-05-15T07:46:18.543Z,100420.19
2023-05-15T07:48:46.826Z,100415.28
2023-05-15T07:51:15.077Z,100424.69
2023-05-15T07:53:43.333Z,100419.41
2023-05-15T07:56:11.665Z,100418.34
2023-05-15T07:58:40.282Z,100424.41
2023-05-15T08:01:08.656Z,100416.47
2023-05-15T08:03:37.075Z,100417.06
2023-05-15T08:06:07.255Z,100418.78
2023-05-15T08:08:35.739Z,100412.94
2023-05-15T08:11:04.008Z,100411.66
2023-05-15T08:13:32.359Z,100419.06
2023-05-15T08:16:00.666Z,100414.47
2023-05-15T08:18:29.057Z,100417.19
2023-05-15T08:20:57.354Z,100412.47
2023-05-15T08:23:25.670Z,100401.41
2023-05-15T08:25:53.905Z,100415.28
2023-05-15T08:28:22.145Z,100415.44
2023-05-15T08:30:50.483Z,100413.81
2023-05-15T08:33:18.861Z,100421.91
2023-05-15T08:35:47.163Z,100411.75
2023-05-15T08:38:16.603Z,100411.06
2023-05-15T08:40:47.675Z,100408.47
2023-05-15T08:43:17.910Z,100404.81
2023-05-15T08:45:46.263Z,100408.41
2023-05-15T08:48:19.514Z,100406.66
2023-05-15T08:50:48.047Z,100403.72
2023-05-15T08:53:16.638Z,100408.06
2023-05-15T08:55:45.310Z,100405.81
2023-05-15T08:58:14.561Z,100405.28
2023-05-15T09:00:42.929Z,100411.25
2023-05-15T09:03:16.514Z,100408.88
2023-05-15T09:05:46.495Z,100410.25
2023-05-15T09:08:16.085Z,100417.69
2023-05-15T09:10:46.945Z,100413.81
2023-05-15T09:13:15.324Z,100413.25
2023-05-15T09:15:43.691Z,100406.13
2023-05-15T09:18:12.408Z,100409.22
2023-05-15T09:20:40.846Z,100408.06
2023-05-15T09:23:26.377Z,100405.72
2023-05-15T09:25:56.783Z,100412.56
2023-05-15T09:28:31.103Z,100405.13
2023-05-15T09:31:05.041Z,100401.41
2023-05-15T09:33:41.524Z,100409.13
2023-05-15T09:36:10.763Z,100405.38
2023-05-15T09:38:47.364Z,100403.19
2023-05-15T09:41:16.038Z,100396.53
2023-05-15T09:43:44.593Z,100399.59
2023-05-15T09:46:15.877Z,100399.72
2023-05-15T09:48:44.290Z,100400.59
2023-05-15T09:51:19.818Z,100407.78
2023-05-15T09:53:53.261Z,100407.53
2023-05-15T09:56:22.484Z,100403.06
2023-05-15T09:58:59.417Z,100406.66
2023-05-15T10:01:28.033Z,100395.41
2023-05-15T10:04:06.285Z,100392.56
2023-05-15T10:06:48.447Z,100396.13
2023-05-15T10:09:17.079Z,100396.88
2023-05-15T10:11:54.248Z,100395.00
2023-05-15T10:14:24.284Z,100398.84
2023-05-15T10:16:54.097Z,100385.38
2023-05-15T10:19:25.724Z,100391.50
2023-05-15T10:21:54.788Z,100399.63
2023-05-15T10:24:24.005Z,100398.13
2023-05-15T10:26:52.557Z,100400.22
2023-05-15T10:29:25.383Z,100398.84
2023-05-15T10:31:54.487Z,100403.47
2023-05-15T10:34:23.553Z,100391.41
2023-05-15T10:36:52.085Z,100401.22
2023-05-15T10:39:20.777Z,100392.28
2023-05-15T10:41:51.332Z,100394.25
2023-05-15T10:44:20.618Z,100388.28
2023-05-15T10:46:49.697Z,100397.56
2023-05-15T10:49:18.090Z,100388.28
2023-05-15T10:51:46.443Z,100394.84
2023-05-15T10:54:15.165Z,100387.72
2023-05-15T10:56:43.496Z,100393.97
2023-05-15T10:59:12.093Z,100382.78
2023-05-15T11:01:41.944Z,100377.56
2023-05-15T11:04:35.195Z,100372.47
2023-05-15T11:07:32.218Z,100375.28
2023-05-15T11:10:00.673Z,100370.72
2023-05-15T11:12:59.123Z,100366.97
2023-05-15T11:15:27.730Z,100357.53
2023-05-15T11:18:04.872Z,100357.16
2023-05-15T11:21:02.918Z,100358.94
2023-05-15T11:23:41.013Z,100357.75
2023-05-15T11:26:13.835Z,100359.88
2023-05-15T11:28:43.772Z,100357.75
2023-05-15T11:31:12.268Z,100346.44
2023-05-15T11:33:40.862Z,100346.28
2023-05-15T11:36:09.280Z,100335.31
2023-05-15T11:38:40.060Z,100330.56
2023-05-15T11:41:21.692Z,100325.09
2023-05-15T11:43:50.760Z,100331.44
2023-05-15T11:46:19.191Z,100334.50
2023-05-15T11:48:48.316Z,100326.56
2023-05-15T11:51:27.526Z,100328.50
2023-05-15T11:53:57.072Z,100320.84
2023-05-15T11:56:30.762Z,100321.94
2023-05-15T11:59:01.248Z,100324.03
2023-05-15T12:01:41.307Z,100318.84
2023-05-15T12:04:17.774Z,100318.91
2023-05-15T12:06:49.760Z,100313.63
2023-05-15T12:09:22.665Z,100305.78
2023-05-15T12:11:55.763Z,100310.56
2023-05-15T12:14:31.371Z,100309.84
2023-05-15T12:17:04.312Z,100310.47
2023-05-15T12:19:35.941Z,100305.06
2023-05-15T12:22:08.399Z,100310.13
2023-05-15T12:24:39.750Z,100305.94
2023-05-15T12:27:08.743Z,100309.06
2023-05-15T12:29:39.363Z,100308.09
2023-05-15T12:32:08.648Z,100294.56
2023-05-15T12:34:37.239Z,100296.94
2023-05-15T12:37:06.114Z,100304.31
2023-05-15T12:39:34.339Z,100296.16
2023-05-15T12:42:03.616Z,100295.56
2023-05-15T12:44:32.424Z,100290.63
2023-05-15T12:47:00.703Z,100300.84
2023-05-15T12:49:28.921Z,100287.56
2023-05-15T12:51:57.312Z,100299.03
2023-05-15T12:54:26.239Z,100290.75
2023-05-15T12:56:57.466Z,100283.75
2023-05-15T12:59:26.059Z,100290.25
2023-05-15T13:01:54.341Z,100291.03
2023-05-15T13:04:22.747Z,100292.25
2023-05-15T13:06:52.555Z,100276.56
2023-05-15T13:09:25.265Z,100279.50
2023-05-15T13:11:56.392Z,100271.09
2023-05-15T13:14:28.928Z,100273.97
2023-05-15T13:17:04.790Z,100279.22
2023-05-15T13:19:34.525Z,100284.56
2023-05-15T13:22:02.832Z,100282.25
2023-05-15T13:24:32.709Z,100281.97
2023-05-15T13:27:01.271Z,100274.78
2023-05-15T13:29:30.646Z,100289.59
2023-05-15T13:31:58.931Z,100270.03
2023-05-15T13:34:27.675Z,100274.50
2023-05-15T13:36:55.917Z,100272.41
2023-05-15T13:39:24.180Z,100275.47
2023-05-15T13:41:52.448Z,100268.19
2023-05-15T13:44:20.783Z,100258.47
2023-05-15T13:46:49.121Z,100263.22
2023-05-15T13:49:17.437Z,100257.78
2023-05-15T13:51:45.629Z,100264.09
2023-05-15T13:54:14.012Z,100269.41
2023-05-15T13:56:42.342Z,100251.75
2023-05-15T13:59:11.105Z,100249.16
2023-05-15T14:01:39.350Z,100250.78
2023-05-15T14:04:07.689Z,100242.13
2023-05-15T14:06:36.189Z,100246.81
2023-05-15T14:09:04.723Z,100233.31
2023-05-15T14:11:33.157Z,100236.53
2023-05-15T14:14:01.371Z,100241.19
2023-05-15T14:16:29.726Z,100247.47
2023-05-15T14:18:58.143Z,100239.25
2023-05-15T14:21:27.702Z,100255.78
2023-05-15T14:23:57.081Z,100252.00
2023-05-15T14:26:25.929Z,100252.94
2023-05-15T14:28:54.173Z,100246.84
2023-05-15T14:31:22.431Z,100244.22
2023-05-15T14:33:52.551Z,100239.97
2023-05-15T14:36:20.459Z,100252.41
2023-05-15T14:38:49.094Z,100243.47
2023-05-15T14:41:17.408Z,100233.06
2023-05-15T14:43:47.458Z,100235.75
2023-05-15T14:46:15.757Z,100237.38
2023-05-15T14:48:45.220Z,100227.72
2023-05-15T14:51:13.473Z,100227.53
2023-05-15T14:53:43.290Z,100233.00
2023-05-15T14:56:11.871Z,100229.88
2023-05-15T14:58:40.336Z,100231.25
2023-05-15T15:01:08.758Z,100245.75
2023-05-15T15:03:37.229Z,100248.41
2023-05-15T15:06:06.093Z,100248.13
2023-05-15T15:08:34.321Z,100244.97
2023-05-15T15:11:02.635Z,100235.75
2023-05-15T15:13:30.985Z,100244.84
2023-05-15T15:15:59.264Z,100235.56
2023-05-15T15:18:27.630Z,100234.56
2023-05-15T15:20:55.916Z,100250.84
2023-05-15T15:23:24.234Z,100246.59
2023-05-15T15:25:52.525Z,100253.00
2023-05-15T15:28:20.707Z,100254.28
2023-05-15T15:30:49.200Z,100252.31
2023-05-15T15:33:17.481Z,100253.38
2023-05-15T15:35:45.727Z,100258.34
2023-05-15T15:38:13.952Z,100237.09
2023-05-15T15:40:42.378Z,100235.16
2023-05-15T15:43:10.801Z,100232.25
2023-05-15T15:45:39.149Z,100239.00
2023-05-15T15:48:08.373Z,100234.97
2023-05-15T15:50:36.666Z,100222.97
2023-05-15T15:53:04.909Z,100228.44
2023-05-15T15:55:33.158Z,100237.38
2023-05-15T15:58:01.358Z,100235.31
2023-05-15T16:00:29.629Z,100242.97
2023-05-15T16:02:57.976Z,100230.63
2023-05-15T16:05:26.392Z,100241.41
2023-05-15T16:07:54.658Z,100243.22
2023-05-15T16:10:22.906Z,100260.19
2023-05-15T16:12:51.264Z,100255.22
2023-05-15T16:15:23.059Z,100254.00
2023-05-15T16:17:53.749Z,100245.16
2023-05-15T16:20:24.226Z,100260.63
2023-05-15T16:22:52.896Z,100262.94
2023-05-15T16:25:21.280Z,100268.50
2023-05-15T16:27:49.508Z,100268.16
2023-05-15T16:30:18.884Z,100262.31
2023-05-15T16:32:48.389Z,100271.41
2023-05-15T16:35:18.762Z,100267.63
2023-05-15T16:37:47.200Z,100270.03
2023-05-15T16:40:16.020Z,100266.34
2023-05-15T16:42:44.392Z,100274.94
2023-05-15T16:45:13.691Z,100276.63
2023-05-15T16:47:42.085Z,100279.47
2023-05-15T16:50:10.803Z,100270.31
2023-05-15T16:52:45.051Z,100274.28
2023-05-15T16:55:15.883Z,100286.63
2023-05-15T16:57:45.417Z,100279.91
2023-05-15T17:00:14.885Z,100283.50
2023-05-15T17:02:43.736Z,100293.19
2023-05-15T17:05:14.061Z,100291.50
2023-05-15T17:07:44.619Z,100290.91
2023-05-15T17:10:13.016Z,100298.00
2023-05-15T17:12:41.500Z,100299.59
2023-05-15T17:15:11.635Z,100310.75
2023-05-15T17:17:39.959Z,100309.06
2023-05-15T17:20:09.202Z,100314.38
2023-05-15T17:22:37.644Z,100318.84
2023-05-15T17:25:07.371Z,100320.88
2023-05-15T17:27:39.764Z,100314.00
2023-05-15T17:30:10.228Z,100323.94
2023-05-15T17:32:39.899Z,100327.63
2023-05-15T17:35:09.146Z,100331.16
2023-05-15T17:37:38.057Z,100337.81
2023-05-15T17:40:07.315Z,100332.03
2023-05-15T17:42:36.105Z,100343.50
2023-05-15T17:45:05.319Z,100339.03
2023-05-15T17:47:33.650Z,100348.94
2023-05-15T17:50:01.982Z,100348.53
2023-05-15T17:52:30.272Z,100353.16
2023-05-15T17:54:58.500Z,100369.50
2023-05-15T17:57:26.913Z,100372.53
2023-05-15T17:59:55.300Z,100385.81
2023-05-15T18:02:23.554Z,100394.88
2023-05-15T18:04:51.904Z,100396.78
2023-05-15T18:07:20.410Z,100407.16
2023-05-15T18:09:48.808Z,100409.09
2023-05-15T18:12:17.086Z,100425.13
2023-05-15T18:14:46.061Z,100428.28
2023-05-15T18:17:16.146Z,100432.09
2023-05-15T18:19:44.880Z,100440.06
2023-05-15T18:22:13.248Z,100438.41
2023-05-15T18:24:44.284Z,100450.81
2023-05-15T18:27:12.693Z,100456.53
2023-05-15T18:29:41.017Z,100456.28
2023-05-15T18:32:10.485Z,100452.44
2023-05-15T18:34:39.853Z,100468.31
2023-05-15T18:37:08.119Z,100470.50
2023-05-15T18:39:38.170Z,100477.94
2023-05-15T18:42:07.955Z,100479.72
2023-05-15T18:44:36.328Z,100484.63
2023-05-15T18:47:04.784Z,100488.44
2023-05-15T18:49:33.863Z,100489.72
2023-05-15T18:52:02.158Z,100487.22
2023-05-15T18:54:30.718Z,100491.19
2023-05-15T18:56:59.066Z,100496.00
2023-05-15T18:59:29.010Z,100497.97
2023-05-15T19:01:57.301Z,100506.69
2023-05-15T19:04:27.633Z,100517.91
2023-05-15T19:06:55.888Z,100522.00
2023-05-15T19:09:24.187Z,100527.13
2023-05-15T19:11:52.637Z,100534.22
2023-05-15T19:14:21.430Z,100535.41
2023-05-15T19:16:50.048Z,100539.38
2023-05-15T19:19:18.955Z,100541.91
2023-05-15T19:21:47.516Z,100550.13
2023-05-15T19:24:15.932Z,100550.97
2023-05-15T19:26:44.339Z,100557.09
2023-05-15T19:29:12.556Z,100563.03
2023-05-15T19:31:40.880Z,100562.69
2023-05-15T19:34:09.256Z,100563.63
2023-05-15T19:36:37.539Z,100574.44
2023-05-15T19:39:05.753Z,100577.47
2023-05-15T19:41:33.994Z,100571.19
2023-05-15T19:44:03.192Z,100577.31
2023-05-15T19:46:31.432Z,100584.38
2023-05-15T19:48:59.718Z,100587.22
2023-05-15T19:51:28.018Z,100583.09
2023-05-15T19:53:56.796Z,100585.59
2023-05-15T19:56:26.086Z,100584.91
2023-05-15T19:58:54.417Z,100585.56
2023-05-15T20:01:22.800Z,100586.34
2023-05-15T20:03:52.684Z,100579.88
2023-05-15T20:06:24.435Z,100599.72
2023-05-15T20:08:52.808Z,100594.97
2023-05-15T20:11:21.128Z,100601.34
2023-05-15T20:13:49.419Z,100607.25
2023-05-15T20:16:18.755Z,100610.84
2023-05-15T20:18:47.992Z,100603.25
2023-05-15T20:21:16.636Z,100616.16
2023-05-15T20:23:45.367Z,100620.84
2023-05-15T20:26:13.766Z,100612.69
2023-05-15T20:28:44.371Z,100623.34
2023-05-15T20:31:13.821Z,100625.81
2023-05-15T20:33:42.163Z,100632.19
2023-05-15T20:36:10.634Z,100632.44
2023-05-15T20:38:38.892Z,100626.50
2023-05-15T20:41:07.223Z,100634.03
2023-05-15T20:43:35.619Z,100631.66
2023-05-15T20:46:03.871Z,100637.63
2023-05-15T20:48:32.167Z,100641.28
2023-05-15T20:51:00.495Z,100632.41
2023-05-15T20:53:31.391Z,100640.69
2023-05-15T20:55:59.792Z,100649.84
2023-05-15T20:58:28.118Z,100653.88
2023-05-15T21:00:58.201Z,100644.84
2023-05-15T21:03:27.043Z,100643.41
2023-05-15T21:05:57.360Z,100650.41
2023-05-15T21:08:27.763Z,100649.94
2023-05-15T21:10:56.120Z,100654.34
2023-05-15T21:13:24.358Z,100657.22
2023-05-15T21:15:52.625Z,100651.75
2023-05-15T21:18:20.837Z,100656.94
2023-05-15T21:20:49.122Z,100657.66
2023-05-15T21:23:18.138Z,100655.63
2023-05-15T21:25:46.364Z,100657.09
2023-05-15T21:28:14.712Z,100663.41
2023-05-15T21:30:43.046Z,100661.78
2023-05-15T21:33:11.411Z,100651.53
2023-05-15T21:35:41.246Z,100666.72
2023-05-15T21:38:09.777Z,100661.06
2023-05-15T21:40:38.197Z,100665.75
2023-05-15T21:43:06.544Z,100662.59
2023-05-15T21:45:34.842Z,100666.97
2023-05-15T21:48:04.242Z,100672.03
2023-05-15T21:53:16.003Z,100665.97
2023-05-15T21:58:26.985Z,100669.72
2023-05-15T22:00:55.372Z,100670.22
2023-05-15T22:03:23.673Z,100683.69
2023-05-15T22:05:52.760Z,100672.25
2023-05-15T22:08:21.601Z,100663.69
2023-05-15T22:10:50.201Z,100666.88
2023-05-15T22:13:20.151Z,100667.97
2023-05-15T22:15:48.401Z,100668.34
2023-05-15T22:18:16.677Z,100672.06
2023-05-15T22:20:45.038Z,100666.03
2023-05-15T22:23:13.279Z,100665.97
2023-05-15T22:25:41.877Z,100673.84
2023-05-15T22:28:11.268Z,100669.09
2023-05-15T22:30:39.724Z,100677.47
2023-05-15T22:33:07.972Z,100679.94
2023-05-15T22:35:37.194Z,100677.47
2023-05-15T22:38:07.220Z,100679.94
2023-05-15T22:40:35.520Z,100681.09
2023-05-15T22:43:03.883Z,100686.31
2023-05-15T22:45:32.221Z,100691.38
2023-05-15T22:48:01.588Z,100690.22
2023-05-15T22:50:29.946Z,100694.81
2023-05-15T22:52:58.204Z,100687.09
2023-05-15T22:55:26.824Z,100688.94
2023-05-15T22:57:55.421Z,100689.88
2023-05-15T23:00:24.489Z,100688.28
2023-05-15T23:02:55.258Z,100676.81
2023-05-15T23:05:24.852Z,100684.03
2023-05-15T23:07:53.467Z,100683.03
2023-05-15T23:10:22.021Z,100693.53
2023-05-15T23:12:50.702Z,100696.94
2023-05-15T23:15:19.339Z,100700.34
2023-05-15T23:17:48.040Z,100697.25
2023-05-15T23:20:16.539Z,100701.31
2023-05-15T23:22:44.771Z,100699.53
2023-05-15T23:25:13.181Z,100698.41
2023-05-15T23:27:41.533Z,100703.81
2023-05-15T23:30:10.187Z,100711.16
2023-05-15T23:32:38.471Z,100696.09
2023-05-15T23:35:07.487Z,100707.38
2023-05-15T23:37:35.838Z,100707.06
2023-05-15T23:40:05.960Z,100705.91
2023-05-15T23:42:35.295Z,100708.38
2023-05-15T23:45:05.253Z,100706.25
2023-05-15T23:47:34.727Z,100705.25
2023-05-15T23:50:03.630Z,100708.22
2023-05-15T23:52:31.904Z,100710.50
2023-05-15T23:55:00.529Z,100705.25
2023-05-15T23:57:28.812Z,100707.75
2023-05-15T23:59:57.078Z,100702.66
